createdAt,value
2022-10-10T00:00:08.421Z,1018.85
2022-10-10T00:01:12.664Z,1018.83
2022-10-10T00:02:16.897Z,1018.84
2022-10-10T00:03:21.131Z,1018.84
2022-10-10T00:04:25.478Z,1018.82
2022-10-10T00:05:29.679Z,1018.82
2022-10-10T00:06:33.991Z,1018.83
2022-10-10T00:07:38.195Z,1018.83
2022-10-10T00:08:42.429Z,1018.82
2022-10-10T00:09:46.610Z,1018.81
2022-10-10T00:10:50.870Z,1018.79
2022-10-10T00:11:55.115Z,1018.80
2022-10-10T00:12:59.302Z,1018.79
2022-10-10T00:14:03.519Z,1018.79
2022-10-10T00:15:07.758Z,1018.77
2022-10-10T00:16:12.012Z,1018.77
2022-10-10T00:17:16.282Z,1018.75
2022-10-10T00:18:20.594Z,1018.72
2022-10-10T00:19:24.800Z,1018.71
2022-10-10T00:20:28.997Z,1018.68
2022-10-10T00:21:33.241Z,1018.68
2022-10-10T00:22:37.499Z,1018.66
2022-10-10T00:23:41.787Z,1018.67
2022-10-10T00:24:46.002Z,1018.64
2022-10-10T00:25:50.226Z,1018.64
2022-10-10T00:26:54.489Z,1018.65
2022-10-10T00:27:58.709Z,1018.65
2022-10-10T00:29:02.960Z,1018.64
2022-10-10T00:30:10.202Z,1018.63
2022-10-10T00:31:13.475Z,1018.62
2022-10-10T00:32:17.709Z,1018.58
2022-10-10T00:33:22.024Z,1018.56
2022-10-10T00:34:26.314Z,1018.57
2022-10-10T00:35:30.515Z,1018.57
2022-10-10T00:36:34.766Z,1018.56
2022-10-10T00:37:39.017Z,1018.57
2022-10-10T00:38:43.260Z,1018.58
2022-10-10T00:39:47.586Z,1018.57
2022-10-10T00:40:51.792Z,1018.53
2022-10-10T00:41:56.043Z,1018.52
2022-10-10T00:43:00.270Z,1018.51
2022-10-10T00:44:04.511Z,1018.47
2022-10-10T00:45:08.715Z,1018.44
2022-10-10T00:46:13.005Z,1018.42
2022-10-10T00:47:17.178Z,1018.41
2022-10-10T00:48:21.557Z,1018.38
2022-10-10T00:49:25.776Z,1018.36
2022-10-10T00:50:29.976Z,1018.36
2022-10-10T00:51:34.199Z,1018.35
2022-10-10T00:52:38.504Z,1018.36
2022-10-10T00:53:42.699Z,1018.35
2022-10-10T00:54:46.910Z,1018.34
2022-10-10T00:55:51.150Z,1018.32
2022-10-10T00:56:55.406Z,1018.31
2022-10-10T00:57:59.635Z,1018.29
2022-10-10T00:59:03.886Z,1018.28
2022-10-10T01:00:08.109Z,1018.29
2022-10-10T01:01:12.455Z,1018.28
2022-10-10T01:02:16.652Z,1018.28
2022-10-10T01:03:20.836Z,1018.28
2022-10-10T01:04:24.971Z,1018.30
2022-10-10T01:05:29.256Z,1018.29
2022-10-10T01:06:33.519Z,1018.28
2022-10-10T01:07:37.845Z,1018.30
2022-10-10T01:08:42.078Z,1018.29
2022-10-10T01:09:46.298Z,1018.28
2022-10-10T01:10:50.492Z,1018.29
2022-10-10T01:11:54.692Z,1018.26
2022-10-10T01:12:58.911Z,1018.24
2022-10-10T01:14:03.212Z,1018.25
2022-10-10T01:15:07.437Z,1018.22
2022-10-10T01:16:11.652Z,1018.19
2022-10-10T01:17:15.891Z,1018.19
2022-10-10T01:18:20.141Z,1018.18
2022-10-10T01:19:24.336Z,1018.16
2022-10-10T01:20:28.507Z,1018.15
2022-10-10T01:21:32.861Z,1018.12
2022-10-10T01:22:37.039Z,1018.12
2022-10-10T01:23:41.181Z,1018.10
2022-10-10T01:24:45.465Z,1018.08
2022-10-10T01:25:49.689Z,1018.09
2022-10-10T01:26:53.906Z,1018.07
2022-10-10T01:27:58.121Z,1018.07
2022-10-10T01:29:02.370Z,1018.04
2022-10-10T01:30:06.602Z,1018.01
2022-10-10T01:31:10.820Z,1017.98
2022-10-10T01:32:15.098Z,1017.96
2022-10-10T01:33:19.291Z,1017.95
2022-10-10T01:34:23.495Z,1017.94
2022-10-10T01:35:27.821Z,1017.92
2022-10-10T01:36:31.994Z,1017.91
2022-10-10T01:37:36.252Z,1017.90
2022-10-10T01:38:40.495Z,1017.86
2022-10-10T01:39:44.741Z,1017.82
2022-10-10T01:40:48.954Z,1017.83
2022-10-10T01:41:53.212Z,1017.81
2022-10-10T01:42:57.525Z,1017.80
2022-10-10T01:44:01.787Z,1017.82
2022-10-10T01:45:05.984Z,1017.80
2022-10-10T01:46:10.188Z,1017.81
2022-10-10T01:47:14.404Z,1017.80
2022-10-10T01:48:18.690Z,1017.79
2022-10-10T01:49:22.905Z,1017.79
2022-10-10T01:50:27.167Z,1017.76
2022-10-10T01:51:31.373Z,1017.76
2022-10-10T01:52:35.655Z,1017.75
2022-10-10T01:53:39.871Z,1017.73
2022-10-10T01:54:44.093Z,1017.73
2022-10-10T01:55:48.314Z,1017.70
2022-10-10T01:56:52.533Z,1017.67
2022-10-10T01:57:56.769Z,1017.65
2022-10-10T01:59:01.028Z,1017.64
2022-10-10T02:00:05.244Z,1017.59
2022-10-10T02:01:09.570Z,1017.58
2022-10-10T02:02:13.771Z,1017.54
2022-10-10T02:03:17.956Z,1017.54
2022-10-10T02:04:22.153Z,1017.51
2022-10-10T02:05:26.365Z,1017.50
2022-10-10T02:06:30.637Z,1017.49
2022-10-10T02:07:34.862Z,1017.46
2022-10-10T02:08:39.122Z,1017.45
2022-10-10T02:09:43.310Z,1017.44
2022-10-10T02:10:47.559Z,1017.42
2022-10-10T02:11:51.730Z,1017.42
2022-10-10T02:12:55.989Z,1017.44
2022-10-10T02:14:00.207Z,1017.43
2022-10-10T02:15:04.308Z,1017.43
2022-10-10T02:16:08.625Z,1017.39
2022-10-10T02:17:12.740Z,1017.41
2022-10-10T02:18:17.129Z,1017.43
2022-10-10T02:19:21.336Z,1017.40
2022-10-10T02:20:25.562Z,1017.35
2022-10-10T02:21:29.772Z,1017.35
2022-10-10T02:22:34.119Z,1017.35
2022-10-10T02:23:38.282Z,1017.33
2022-10-10T02:24:42.413Z,1017.36
2022-10-10T02:25:46.698Z,1017.33
2022-10-10T02:26:50.877Z,1017.32
2022-10-10T02:27:55.124Z,1017.33
2022-10-10T02:28:59.338Z,1017.33
2022-10-10T02:30:03.565Z,1017.33
2022-10-10T02:31:07.770Z,1017.31
2022-10-10T02:32:12.045Z,1017.26
2022-10-10T02:33:16.344Z,1017.27
2022-10-10T02:34:20.591Z,1017.25
2022-10-10T02:35:24.758Z,1017.22
2022-10-10T02:36:28.966Z,1017.24
2022-10-10T02:37:33.207Z,1017.21
2022-10-10T02:38:37.460Z,1017.22
2022-10-10T02:39:41.669Z,1017.22
2022-10-10T02:40:45.927Z,1017.17
2022-10-10T02:41:50.219Z,1017.17
2022-10-10T02:42:54.647Z,1017.17
2022-10-10T02:43:58.643Z,1017.15
2022-10-10T02:45:02.880Z,1017.14
2022-10-10T02:46:07.059Z,1017.13
2022-10-10T02:47:11.227Z,1017.12
2022-10-10T02:48:15.477Z,1017.11
2022-10-10T02:49:19.598Z,1017.08
2022-10-10T02:50:23.846Z,1017.08
2022-10-10T02:51:30.428Z,1017.08
2022-10-10T02:52:32.324Z,1017.05
2022-10-10T02:53:36.578Z,1017.04
2022-10-10T02:54:40.817Z,1017.04
2022-10-10T02:55:44.906Z,1017.03
2022-10-10T02:56:49.173Z,1017.04
2022-10-10T02:57:53.371Z,1017.02
2022-10-10T02:58:57.597Z,1017.01
2022-10-10T03:00:07.969Z,1016.96
2022-10-10T03:01:10.839Z,1016.97
2022-10-10T03:02:14.950Z,1016.96
2022-10-10T03:03:19.229Z,1016.97
2022-10-10T03:04:23.364Z,1016.93
2022-10-10T03:05:27.701Z,1016.93
2022-10-10T03:06:31.873Z,1016.91
2022-10-10T03:07:36.036Z,1016.90
2022-10-10T03:08:40.248Z,1016.87
2022-10-10T03:09:44.478Z,1016.93
2022-10-10T03:10:48.653Z,1016.85
2022-10-10T03:11:52.895Z,1016.85
2022-10-10T03:12:57.088Z,1016.85
2022-10-10T03:14:01.278Z,1016.83
2022-10-10T03:15:09.325Z,1016.80
2022-10-10T03:16:09.721Z,1016.74
2022-10-10T03:17:13.824Z,1016.76
2022-10-10T03:18:18.101Z,1016.74
2022-10-10T03:19:22.280Z,1016.74
2022-10-10T03:20:26.477Z,1016.73
2022-10-10T03:21:30.699Z,1016.72
2022-10-10T03:22:34.892Z,1016.72
2022-10-10T03:23:39.103Z,1016.69
2022-10-10T03:24:43.336Z,1016.65
2022-10-10T03:25:47.573Z,1016.63
2022-10-10T03:26:51.766Z,1016.60
2022-10-10T03:27:56.011Z,1016.57
2022-10-10T03:29:00.232Z,1016.54
2022-10-10T03:30:04.441Z,1016.52
2022-10-10T03:31:08.637Z,1016.54
2022-10-10T03:32:12.828Z,1016.52
2022-10-10T03:33:17.043Z,1016.51
2022-10-10T03:34:21.257Z,1016.51
2022-10-10T03:35:25.483Z,1016.49
2022-10-10T03:36:29.741Z,1016.50
2022-10-10T03:37:34.048Z,1016.51
2022-10-10T03:38:38.207Z,1016.52
2022-10-10T03:39:42.406Z,1016.53
2022-10-10T03:40:46.601Z,1016.50
2022-10-10T03:41:51.006Z,1016.50
2022-10-10T03:42:55.057Z,1016.51
2022-10-10T03:43:59.361Z,1016.47
2022-10-10T03:45:03.510Z,1016.48
2022-10-10T03:46:09.647Z,1016.43
2022-10-10T03:47:12.048Z,1016.42
2022-10-10T03:48:16.231Z,1016.39
2022-10-10T03:49:20.350Z,1016.37
2022-10-10T03:50:24.591Z,1016.37
2022-10-10T03:51:28.909Z,1016.36
2022-10-10T03:52:33.073Z,1016.34
2022-10-10T03:53:37.242Z,1016.33
2022-10-10T03:54:41.529Z,1016.32
2022-10-10T03:55:45.727Z,1016.30
2022-10-10T03:56:49.935Z,1016.29
2022-10-10T03:57:54.182Z,1016.27
2022-10-10T03:58:58.274Z,1016.27
2022-10-10T04:00:02.561Z,1016.27
2022-10-10T04:01:06.815Z,1016.23
2022-10-10T04:02:11.002Z,1016.20
2022-10-10T04:03:15.254Z,1016.21
2022-10-10T04:04:19.496Z,1016.18
2022-10-10T04:05:23.606Z,1016.17
2022-10-10T04:06:27.838Z,1016.15
2022-10-10T04:07:32.138Z,1016.13
2022-10-10T04:08:36.317Z,1016.10
2022-10-10T04:09:40.536Z,1016.08
2022-10-10T04:10:44.816Z,1016.03
2022-10-10T04:11:49.013Z,1016.04
2022-10-10T04:12:53.564Z,1016.03
2022-10-10T04:13:57.448Z,1016.03
2022-10-10T04:15:01.628Z,1016.04
2022-10-10T04:16:05.843Z,1016.03
2022-10-10T04:17:10.048Z,1016.01
2022-10-10T04:18:14.356Z,1015.98
2022-10-10T04:19:18.501Z,1015.95
2022-10-10T04:20:22.731Z,1015.94
2022-10-10T04:21:26.929Z,1015.93
2022-10-10T04:22:31.132Z,1015.92
2022-10-10T04:23:35.318Z,1015.88
2022-10-10T04:24:39.533Z,1015.87
2022-10-10T04:25:43.782Z,1015.86
2022-10-10T04:26:47.862Z,1015.86
2022-10-10T04:27:52.133Z,1015.85
2022-10-10T04:28:56.342Z,1015.84
2022-10-10T04:30:00.577Z,1015.83
2022-10-10T04:31:04.794Z,1015.80
2022-10-10T04:32:08.999Z,1015.81
2022-10-10T04:33:13.234Z,1015.79
2022-10-10T04:34:17.470Z,1015.75
2022-10-10T04:35:21.789Z,1015.72
2022-10-10T04:36:25.974Z,1015.72
2022-10-10T04:37:30.183Z,1015.71
2022-10-10T04:38:34.396Z,1015.69
2022-10-10T04:39:38.665Z,1015.67
2022-10-10T04:40:42.836Z,1015.64
2022-10-10T04:41:46.941Z,1015.61
2022-10-10T04:42:51.661Z,1015.57
2022-10-10T04:43:55.410Z,1015.57
2022-10-10T04:44:59.637Z,1015.57
2022-10-10T04:46:03.871Z,1015.55
2022-10-10T04:47:08.059Z,1015.53
2022-10-10T04:48:12.285Z,1015.54
2022-10-10T04:49:16.494Z,1015.54
2022-10-10T04:50:20.747Z,1015.53
2022-10-10T04:51:24.962Z,1015.50
2022-10-10T04:52:29.309Z,1015.49
2022-10-10T04:53:33.503Z,1015.48
2022-10-10T04:54:37.611Z,1015.45
2022-10-10T04:55:41.888Z,1015.45
2022-10-10T04:56:46.144Z,1015.43
2022-10-10T04:57:50.346Z,1015.40
2022-10-10T04:58:54.545Z,1015.42
2022-10-10T04:59:58.761Z,1015.41
2022-10-10T05:01:03.025Z,1015.39
2022-10-10T05:02:07.188Z,1015.42
2022-10-10T05:03:11.406Z,1015.43
2022-10-10T05:04:15.622Z,1015.43
2022-10-10T05:05:19.829Z,1015.44
2022-10-10T05:06:24.035Z,1015.43
2022-10-10T05:07:28.258Z,1015.45
2022-10-10T05:08:32.389Z,1015.43
2022-10-10T05:09:36.760Z,1015.46
2022-10-10T05:10:40.902Z,1015.47
2022-10-10T05:11:45.124Z,1015.49
2022-10-10T05:12:49.778Z,1015.47
2022-10-10T05:13:53.469Z,1015.46
2022-10-10T05:14:57.719Z,1015.45
2022-10-10T05:16:01.930Z,1015.43
2022-10-10T05:17:06.226Z,1015.42
2022-10-10T05:18:10.324Z,1015.42
2022-10-10T05:19:14.613Z,1015.39
2022-10-10T05:20:18.850Z,1015.37
2022-10-10T05:21:23.082Z,1015.36
2022-10-10T05:22:27.332Z,1015.36
2022-10-10T05:23:31.556Z,1015.33
2022-10-10T05:24:35.790Z,1015.32
2022-10-10T05:25:40.009Z,1015.28
2022-10-10T05:26:44.244Z,1015.28
2022-10-10T05:27:48.448Z,1015.29
2022-10-10T05:28:55.675Z,1015.27
2022-10-10T05:29:58.950Z,1015.29
2022-10-10T05:31:03.187Z,1015.28
2022-10-10T05:32:10.311Z,1015.27
2022-10-10T05:33:11.620Z,1015.24
2022-10-10T05:34:15.957Z,1015.23
2022-10-10T05:35:20.117Z,1015.22
2022-10-10T05:36:24.339Z,1015.21
2022-10-10T05:37:28.560Z,1015.21
2022-10-10T05:38:32.775Z,1015.21
2022-10-10T05:39:37.005Z,1015.20
2022-10-10T05:40:41.216Z,1015.23
2022-10-10T05:41:45.431Z,1015.23
2022-10-10T05:42:50.010Z,1015.23
2022-10-10T05:43:53.814Z,1015.24
2022-10-10T05:44:58.049Z,1015.25
2022-10-10T05:46:02.297Z,1015.23
2022-10-10T05:47:06.475Z,1015.22
2022-10-10T05:48:10.691Z,1015.18
2022-10-10T05:49:15.009Z,1015.18
2022-10-10T05:50:19.207Z,1015.17
2022-10-10T05:51:23.373Z,1015.15
2022-10-10T05:52:27.616Z,1015.13
2022-10-10T05:53:31.891Z,1015.11
2022-10-10T05:54:36.045Z,1015.13
2022-10-10T05:55:40.331Z,1015.14
2022-10-10T05:56:44.500Z,1015.12
2022-10-10T05:57:48.744Z,1015.09
2022-10-10T05:58:52.957Z,1015.07
2022-10-10T05:59:57.176Z,1015.09
2022-10-10T06:01:01.371Z,1015.08
2022-10-10T06:02:05.673Z,1015.10
2022-10-10T06:03:09.835Z,1015.08
2022-10-10T06:04:14.088Z,1015.08
2022-10-10T06:05:18.246Z,1015.05
2022-10-10T06:06:22.455Z,1015.07
2022-10-10T06:07:36.083Z,1015.03
2022-10-10T06:08:30.857Z,1015.04
2022-10-10T06:09:35.070Z,1015.01
2022-10-10T06:10:39.281Z,1015.00
2022-10-10T06:11:43.540Z,1014.97
2022-10-10T06:12:48.017Z,1014.94
2022-10-10T06:13:51.990Z,1014.95
2022-10-10T06:14:56.270Z,1014.95
2022-10-10T06:16:00.580Z,1014.96
2022-10-10T06:17:04.765Z,1014.96
2022-10-10T06:18:08.898Z,1014.98
2022-10-10T06:19:15.128Z,1015.00
2022-10-10T06:20:17.444Z,1015.00
2022-10-10T06:21:21.525Z,1015.02
2022-10-10T06:22:25.816Z,1015.02
2022-10-10T06:23:29.995Z,1015.03
2022-10-10T06:24:34.215Z,1015.00
2022-10-10T06:25:41.184Z,1014.99
2022-10-10T06:26:42.654Z,1015.01
2022-10-10T06:27:46.875Z,1015.00
2022-10-10T06:28:51.097Z,1015.00
2022-10-10T06:29:55.328Z,1015.01
2022-10-10T06:30:59.558Z,1014.99
2022-10-10T06:32:03.704Z,1015.00
2022-10-10T06:33:08.017Z,1014.98
2022-10-10T06:34:12.218Z,1014.96
2022-10-10T06:35:16.434Z,1014.96
2022-10-10T06:36:20.639Z,1014.97
2022-10-10T06:37:24.881Z,1014.95
2022-10-10T06:38:29.121Z,1014.93
2022-10-10T06:39:33.324Z,1014.95
2022-10-10T06:40:37.573Z,1014.93
2022-10-10T06:41:41.650Z,1014.94
2022-10-10T06:42:45.928Z,1014.92
2022-10-10T06:43:50.131Z,1014.90
2022-10-10T06:44:54.338Z,1014.89
2022-10-10T06:45:58.593Z,1014.92
2022-10-10T06:47:02.799Z,1014.88
2022-10-10T06:48:06.991Z,1014.90
2022-10-10T06:49:11.258Z,1014.86
2022-10-10T06:50:15.584Z,1014.86
2022-10-10T06:51:19.737Z,1014.88
2022-10-10T06:52:23.986Z,1014.87
2022-10-10T06:53:28.200Z,1014.84
2022-10-10T06:54:32.445Z,1014.84
2022-10-10T06:55:36.592Z,1014.85
2022-10-10T06:56:40.957Z,1014.83
2022-10-10T06:57:45.164Z,1014.81
2022-10-10T06:58:49.382Z,1014.82
2022-10-10T06:59:53.642Z,1014.78
2022-10-10T07:00:57.867Z,1014.75
2022-10-10T07:02:02.078Z,1014.75
2022-10-10T07:03:06.426Z,1014.73
2022-10-10T07:04:10.612Z,1014.70
2022-10-10T07:05:14.704Z,1014.70
2022-10-10T07:06:18.968Z,1014.70
2022-10-10T07:07:23.150Z,1014.70
2022-10-10T07:08:27.404Z,1014.69
2022-10-10T07:09:31.627Z,1014.70
2022-10-10T07:10:35.858Z,1014.69
2022-10-10T07:11:40.050Z,1014.68
2022-10-10T07:12:45.147Z,1014.67
2022-10-10T07:13:48.505Z,1014.65
2022-10-10T07:14:52.813Z,1014.65
2022-10-10T07:15:57.004Z,1014.64
2022-10-10T07:17:01.227Z,1014.63
2022-10-10T07:18:05.454Z,1014.64
2022-10-10T07:19:09.715Z,1014.64
2022-10-10T07:20:13.935Z,1014.63
2022-10-10T07:21:18.161Z,1014.58
2022-10-10T07:22:22.385Z,1014.54
2022-10-10T07:23:26.600Z,1014.54
2022-10-10T07:24:30.879Z,1014.52
2022-10-10T07:25:35.091Z,1014.49
2022-10-10T07:26:39.367Z,1014.46
2022-10-10T07:27:43.665Z,1014.50
2022-10-10T07:28:47.915Z,1014.47
2022-10-10T07:29:52.095Z,1014.50
2022-10-10T07:30:59.322Z,1014.45
2022-10-10T07:32:02.635Z,1014.44
2022-10-10T07:33:06.957Z,1014.44
2022-10-10T07:34:11.175Z,1014.47
2022-10-10T07:35:15.382Z,1014.44
2022-10-10T07:36:19.816Z,1014.43
2022-10-10T07:37:23.898Z,1014.38
2022-10-10T07:38:28.160Z,1014.38
2022-10-10T07:39:32.419Z,1014.36
2022-10-10T07:40:36.657Z,1014.34
2022-10-10T07:41:40.904Z,1014.34
2022-10-10T07:42:45.111Z,1014.32
2022-10-10T07:43:49.383Z,1014.34
2022-10-10T07:44:53.621Z,1014.35
2022-10-10T07:45:57.912Z,1014.33
2022-10-10T07:47:02.108Z,1014.32
2022-10-10T07:48:06.342Z,1014.32
2022-10-10T07:49:10.659Z,1014.32
2022-10-10T07:50:14.914Z,1014.28
2022-10-10T07:51:19.097Z,1014.26
2022-10-10T07:52:23.373Z,1014.24
2022-10-10T07:53:27.606Z,1014.21
2022-10-10T07:54:31.982Z,1014.23
2022-10-10T07:55:36.170Z,1014.22
2022-10-10T07:56:40.485Z,1014.20
2022-10-10T07:57:52.496Z,1014.15
2022-10-10T07:58:51.005Z,1014.16
2022-10-10T07:59:55.275Z,1014.16
2022-10-10T08:00:59.489Z,1014.13
2022-10-10T08:02:03.869Z,1014.08
2022-10-10T08:03:11.734Z,1014.05
2022-10-10T08:04:12.243Z,1014.06
2022-10-10T08:05:16.498Z,1014.07
2022-10-10T08:06:20.758Z,1014.07
2022-10-10T08:07:25.021Z,1014.08
2022-10-10T08:08:29.360Z,1014.08
2022-10-10T08:09:33.589Z,1014.06
2022-10-10T08:10:37.913Z,1014.05
2022-10-10T08:11:42.131Z,1014.06
2022-10-10T08:12:46.371Z,1014.08
2022-10-10T08:13:50.679Z,1014.08
2022-10-10T08:14:54.903Z,1014.04
2022-10-10T08:15:59.171Z,1014.02
2022-10-10T08:17:03.507Z,1014.03
2022-10-10T08:18:07.698Z,1014.02
2022-10-10T08:20:16.220Z,1014.05
2022-10-10T08:21:20.539Z,1014.02
2022-10-10T08:22:24.743Z,1014.02
2022-10-10T08:23:28.999Z,1014.03
2022-10-10T08:24:33.227Z,1014.03
2022-10-10T08:25:37.452Z,1014.01
2022-10-10T08:26:41.771Z,1014.00
2022-10-10T08:27:46.033Z,1014.00
2022-10-10T08:28:50.426Z,1013.99
2022-10-10T08:29:54.535Z,1013.99
2022-10-10T08:31:00.176Z,1013.96
2022-10-10T08:32:02.957Z,1013.96
2022-10-10T08:33:07.224Z,1013.92
2022-10-10T08:34:11.473Z,1013.88
2022-10-10T08:35:15.737Z,1013.90
2022-10-10T08:36:19.959Z,1013.90
2022-10-10T08:37:28.771Z,1013.90
2022-10-10T08:38:28.474Z,1013.85
2022-10-10T08:39:32.813Z,1013.85
2022-10-10T08:40:37.087Z,1013.84
2022-10-10T08:41:41.290Z,1013.84
2022-10-10T08:42:50.221Z,1013.82
2022-10-10T08:43:49.842Z,1013.76
2022-10-10T08:44:55.138Z,1013.73
2022-10-10T08:45:59.030Z,1013.72
2022-10-10T08:47:03.353Z,1013.70
2022-10-10T08:48:07.648Z,1013.68
2022-10-10T08:49:14.153Z,1013.65
2022-10-10T08:50:16.144Z,1013.62
2022-10-10T08:51:20.415Z,1013.60
2022-10-10T08:52:24.679Z,1013.58
2022-10-10T08:53:28.918Z,1013.54
2022-10-10T08:54:33.144Z,1013.57
2022-10-10T08:55:37.402Z,1013.54
2022-10-10T08:56:41.712Z,1013.55
2022-10-10T08:57:45.955Z,1013.56
2022-10-10T08:58:50.269Z,1013.56
2022-10-10T08:59:54.602Z,1013.55
2022-10-10T09:00:58.871Z,1013.52
2022-10-10T09:02:18.375Z,1013.49
2022-10-10T09:03:07.328Z,1013.51
2022-10-10T09:04:11.569Z,1013.47
2022-10-10T09:05:15.842Z,1013.45
2022-10-10T09:06:20.132Z,1013.44
2022-10-10T09:07:24.386Z,1013.43
2022-10-10T09:08:28.602Z,1013.43
2022-10-10T09:09:32.834Z,1013.44
2022-10-10T09:10:37.134Z,1013.43
2022-10-10T09:11:41.449Z,1013.40
2022-10-10T09:12:45.710Z,1013.35
2022-10-10T09:13:49.990Z,1013.33
2022-10-10T09:14:57.459Z,1013.36
2022-10-10T09:15:58.495Z,1013.35
2022-10-10T09:17:02.805Z,1013.35
2022-10-10T09:18:07.106Z,1013.38
2022-10-10T09:19:13.560Z,1013.35
2022-10-10T09:20:15.657Z,1013.31
2022-10-10T09:21:19.944Z,1013.31
2022-10-10T09:22:24.239Z,1013.31
2022-10-10T09:23:28.546Z,1013.30
2022-10-10T09:24:32.818Z,1013.29
2022-10-10T09:25:37.144Z,1013.29
2022-10-10T09:26:41.341Z,1013.26
2022-10-10T09:27:45.609Z,1013.28
2022-10-10T09:28:49.938Z,1013.27
2022-10-10T09:29:54.148Z,1013.27
2022-10-10T09:30:58.724Z,1013.27
2022-10-10T09:32:02.772Z,1013.27
2022-10-10T09:33:07.086Z,1013.27
2022-10-10T09:34:11.362Z,1013.25
2022-10-10T09:35:15.595Z,1013.25
2022-10-10T09:36:19.819Z,1013.22
2022-10-10T09:37:45.839Z,1013.19
2022-10-10T09:38:28.374Z,1013.19
2022-10-10T09:39:32.568Z,1013.15
2022-10-10T09:40:37.016Z,1013.13
2022-10-10T09:41:41.286Z,1013.16
2022-10-10T09:42:45.521Z,1013.14
2022-10-10T09:43:49.783Z,1013.14
2022-10-10T09:44:54.146Z,1013.12
2022-10-10T09:45:58.356Z,1013.12
2022-10-10T09:47:02.612Z,1013.06
2022-10-10T09:48:07.085Z,1013.06
2022-10-10T09:49:11.269Z,1013.06
2022-10-10T09:50:15.564Z,1013.04
2022-10-10T09:51:19.845Z,1013.05
2022-10-10T09:52:24.104Z,1013.05
2022-10-10T09:53:28.440Z,1013.01
2022-10-10T09:54:32.690Z,1013.04
2022-10-10T09:55:36.952Z,1013.01
2022-10-10T09:56:41.213Z,1013.00
2022-10-10T09:57:45.574Z,1012.98
2022-10-10T09:58:49.825Z,1012.93
2022-10-10T09:59:54.159Z,1012.93
2022-10-10T10:00:58.775Z,1012.88
2022-10-10T10:02:02.726Z,1012.84
2022-10-10T10:03:07.009Z,1012.80
2022-10-10T10:04:23.778Z,1012.81
2022-10-10T10:05:15.610Z,1012.80
2022-10-10T10:06:19.920Z,1012.79
2022-10-10T10:07:24.212Z,1012.78
2022-10-10T10:08:28.538Z,1012.77
2022-10-10T10:09:32.851Z,1012.76
2022-10-10T10:10:37.136Z,1012.74
2022-10-10T10:11:41.377Z,1012.74
2022-10-10T10:12:45.668Z,1012.73
2022-10-10T10:13:49.974Z,1012.73
2022-10-10T10:14:54.226Z,1012.73
2022-10-10T10:15:58.507Z,1012.73
2022-10-10T10:17:02.700Z,1012.74
2022-10-10T10:18:07.087Z,1012.75
2022-10-10T10:19:11.367Z,1012.70
2022-10-10T10:20:15.749Z,1012.68
2022-10-10T10:21:19.958Z,1012.67
2022-10-10T10:22:26.568Z,1012.68
2022-10-10T10:23:28.546Z,1012.65
2022-10-10T10:24:32.851Z,1012.64
2022-10-10T10:25:37.149Z,1012.61
2022-10-10T10:26:41.532Z,1012.59
2022-10-10T10:27:45.874Z,1012.60
2022-10-10T10:28:50.312Z,1012.57
2022-10-10T10:29:54.457Z,1012.56
2022-10-10T10:30:58.850Z,1012.52
2022-10-10T10:32:03.103Z,1012.54
2022-10-10T10:33:07.419Z,1012.56
2022-10-10T10:34:11.671Z,1012.53
2022-10-10T10:35:16.077Z,1012.54
2022-10-10T10:36:20.297Z,1012.51
2022-10-10T10:37:24.722Z,1012.51
2022-10-10T10:38:29.046Z,1012.48
2022-10-10T10:39:33.224Z,1012.48
2022-10-10T10:40:37.696Z,1012.48
2022-10-10T10:41:42.015Z,1012.44
2022-10-10T10:42:46.300Z,1012.46
2022-10-10T10:43:50.634Z,1012.44
2022-10-10T10:44:55.053Z,1012.38
2022-10-10T10:45:59.594Z,1012.34
2022-10-10T10:47:03.641Z,1012.28
2022-10-10T10:48:07.915Z,1012.29
2022-10-10T10:49:12.204Z,1012.30
2022-10-10T10:50:16.474Z,1012.31
2022-10-10T10:51:20.873Z,1012.28
2022-10-10T10:52:25.238Z,1012.26
2022-10-10T10:53:29.678Z,1012.27
2022-10-10T10:54:38.261Z,1012.29
2022-10-10T10:55:39.413Z,1012.26
2022-10-10T10:56:42.565Z,1012.26
2022-10-10T10:58:04.664Z,1012.23
2022-10-10T10:59:23.496Z,1012.21
2022-10-10T11:00:21.849Z,1012.18
2022-10-10T11:01:23.937Z,1012.15
2022-10-10T11:02:04.749Z,1012.19
2022-10-10T11:03:34.670Z,1012.19
2022-10-10T11:05:20.906Z,1012.15
2022-10-10T11:05:27.654Z,1012.14
2022-10-10T11:06:21.667Z,1012.15
2022-10-10T11:07:25.818Z,1012.13
2022-10-10T11:08:29.935Z,1012.13
2022-10-10T11:09:50.622Z,1012.14
2022-10-10T11:10:38.724Z,1012.12
2022-10-10T11:11:42.997Z,1012.13
2022-10-10T11:12:47.305Z,1012.11
2022-10-10T11:13:51.611Z,1012.07
2022-10-10T11:14:55.923Z,1012.02
2022-10-10T11:16:10.821Z,1012.02
2022-10-10T11:17:04.609Z,1012.02
2022-10-10T11:18:08.872Z,1012.00
2022-10-10T11:19:13.242Z,1012.02
2022-10-10T11:20:17.488Z,1012.00
2022-10-10T11:21:21.781Z,1012.01
2022-10-10T11:22:26.079Z,1011.97
2022-10-10T11:23:30.454Z,1011.95
2022-10-10T11:24:34.733Z,1011.95
2022-10-10T11:25:39.131Z,1011.95
2022-10-10T11:26:43.360Z,1011.98
2022-10-10T11:27:47.750Z,1011.97
2022-10-10T11:28:52.140Z,1012.00
2022-10-10T11:29:56.385Z,1011.95
2022-10-10T11:31:01.002Z,1011.95
2022-10-10T11:32:05.143Z,1011.90
2022-10-10T11:33:09.354Z,1011.88
2022-10-10T11:34:13.758Z,1011.88
2022-10-10T11:35:18.040Z,1011.87
2022-10-10T11:36:22.463Z,1011.87
2022-10-10T11:37:26.719Z,1011.86
2022-10-10T11:38:31.059Z,1011.86
2022-10-10T11:39:35.337Z,1011.83
2022-10-10T11:40:39.648Z,1011.84
2022-10-10T11:41:43.982Z,1011.83
2022-10-10T11:42:48.355Z,1011.80
2022-10-10T11:43:52.726Z,1011.80
2022-10-10T11:44:57.003Z,1011.77
2022-10-10T11:46:03.109Z,1011.77
2022-10-10T11:47:05.620Z,1011.75
2022-10-10T11:48:10.094Z,1011.75
2022-10-10T11:49:14.473Z,1011.74
2022-10-10T11:50:18.741Z,1011.75
2022-10-10T11:51:23.009Z,1011.74
2022-10-10T11:52:35.141Z,1011.73
2022-10-10T11:53:31.666Z,1011.70
2022-10-10T11:54:36.002Z,1011.64
2022-10-10T11:55:40.289Z,1011.64
2022-10-10T11:56:44.624Z,1011.63
2022-10-10T11:57:49.030Z,1011.60
2022-10-10T11:58:53.422Z,1011.61
2022-10-10T11:59:57.681Z,1011.55
2022-10-10T12:01:03.045Z,1011.53
2022-10-10T12:02:06.994Z,1011.53
2022-10-10T12:03:11.299Z,1011.48
2022-10-10T12:04:15.622Z,1011.51
2022-10-10T12:05:19.921Z,1011.45
2022-10-10T12:06:24.302Z,1011.48
2022-10-10T12:07:28.628Z,1011.41
2022-10-10T12:08:32.995Z,1011.42
2022-10-10T12:09:37.294Z,1011.43
2022-10-10T12:10:41.596Z,1011.45
2022-10-10T12:11:46.025Z,1011.38
2022-10-10T12:12:50.313Z,1011.37
2022-10-10T12:13:54.670Z,1011.35
2022-10-10T12:14:59.163Z,1011.31
2022-10-10T12:16:03.786Z,1011.30
2022-10-10T12:17:07.699Z,1011.25
2022-10-10T12:18:12.113Z,1011.24
2022-10-10T12:19:16.436Z,1011.22
2022-10-10T12:20:20.880Z,1011.21
2022-10-10T12:21:25.280Z,1011.19
2022-10-10T12:22:29.551Z,1011.20
2022-10-10T12:23:34.080Z,1011.19
2022-10-10T12:24:42.521Z,1011.19
2022-10-10T12:25:42.735Z,1011.16
2022-10-10T12:26:47.080Z,1011.11
2022-10-10T12:27:52.601Z,1011.13
2022-10-10T12:28:56.464Z,1011.12
2022-10-10T12:30:00.894Z,1011.13
2022-10-10T12:31:05.884Z,1011.11
2022-10-10T12:32:09.548Z,1011.10
2022-10-10T12:33:13.974Z,1011.11
2022-10-10T12:34:18.313Z,1011.07
2022-10-10T12:35:22.782Z,1011.08
2022-10-10T12:36:27.064Z,1011.08
2022-10-10T12:37:31.386Z,1011.11
2022-10-10T12:38:35.776Z,1011.14
2022-10-10T12:39:40.139Z,1011.11
2022-10-10T12:40:44.418Z,1011.06
2022-10-10T12:41:48.787Z,1011.07
2022-10-10T12:42:53.139Z,1011.05
2022-10-10T12:43:57.469Z,1011.05
2022-10-10T12:45:01.796Z,1011.05
2022-10-10T12:46:06.011Z,1011.09
2022-10-10T12:47:11.347Z,1011.13
2022-10-10T12:48:15.305Z,1011.14
2022-10-10T12:49:19.587Z,1011.15
2022-10-10T12:50:23.909Z,1011.17
2022-10-10T12:51:28.331Z,1011.17
2022-10-10T12:52:32.631Z,1011.16
2022-10-10T12:53:36.963Z,1011.17
2022-10-10T12:54:41.283Z,1011.20
2022-10-10T12:55:45.635Z,1011.20
2022-10-10T12:56:49.989Z,1011.21
2022-10-10T12:57:54.231Z,1011.21